createdAt,value
2018-07-02T00:00:10.726Z,1.70
2018-07-02T00:02:39.267Z,1.90
2018-07-02T00:05:07.949Z,1.50
2018-07-02T00:07:36.401Z,1.80
2018-07-02T00:10:05.142Z,1.47
2018-07-02T00:12:33.606Z,1.60
2018-07-02T00:15:01.987Z,1.77
2018-07-02T00:17:30.341Z,1.90
2018-07-02T00:19:58.665Z,1.50
2018-07-02T00:22:27.086Z,1.40
2018-07-02T00:24:55.401Z,1.50
2018-07-02T00:27:23.790Z,2.00
2018-07-02T00:29:52.129Z,1.30
2018-07-02T00:32:20.489Z,1.50
2018-07-02T00:34:48.846Z,1.47
2018-07-02T00:37:17.244Z,1.60
2018-07-02T00:39:45.660Z,1.60
2018-07-02T00:42:14.022Z,1.73
2018-07-02T00:44:42.371Z,1.40
2018-07-02T00:47:10.753Z,2.33
2018-07-02T00:49:42.992Z,1.60
2018-07-02T00:52:11.331Z,1.57
2018-07-02T00:54:39.669Z,1.90
2018-07-02T00:57:08.017Z,1.67
2018-07-02T00:59:36.387Z,1.20
2018-07-02T01:02:04.735Z,1.57
2018-07-02T01:04:33.136Z,1.33
2018-07-02T01:07:01.528Z,1.20
2018-07-02T01:09:29.909Z,1.70
2018-07-02T01:11:58.213Z,1.60
2018-07-02T01:14:26.643Z,1.80
2018-07-02T01:16:54.959Z,1.50
2018-07-02T01:19:23.325Z,1.40
2018-07-02T01:21:51.682Z,1.70
2018-07-02T01:24:20.018Z,1.30
2018-07-02T01:26:48.444Z,1.60
2018-07-02T01:29:16.806Z,1.40
2018-07-02T01:31:45.202Z,1.20
2018-07-02T01:34:13.513Z,1.70
2018-07-02T01:36:41.871Z,1.30
2018-07-02T01:39:10.717Z,1.30
2018-07-02T01:41:39.073Z,1.40
2018-07-02T01:44:07.462Z,1.60
2018-07-02T01:46:35.793Z,1.40
2018-07-02T01:49:04.366Z,1.33
2018-07-02T01:51:32.869Z,1.70
2018-07-02T01:54:01.235Z,1.33
2018-07-02T01:56:29.632Z,1.57
2018-07-02T01:58:58.032Z,1.30
2018-07-02T02:01:26.374Z,1.80
2018-07-02T02:03:54.784Z,1.40
2018-07-02T02:06:23.192Z,1.33
2018-07-02T02:08:51.577Z,1.30
2018-07-02T02:11:20.085Z,1.50
2018-07-02T02:13:48.491Z,1.27
2018-07-02T02:16:16.859Z,1.30
2018-07-02T02:18:45.171Z,1.40
2018-07-02T02:21:13.522Z,1.20
2018-07-02T02:23:41.877Z,1.43
2018-07-02T02:26:10.328Z,1.53
2018-07-02T02:28:38.673Z,1.50
2018-07-02T02:31:07.110Z,1.27
2018-07-02T02:33:36.107Z,1.10
2018-07-02T02:36:04.490Z,1.40
2018-07-02T02:38:32.841Z,2.03
2018-07-02T02:41:01.524Z,1.23
2018-07-02T02:43:29.956Z,1.70
2018-07-02T02:45:58.382Z,1.63
2018-07-02T02:48:26.686Z,1.37
2018-07-02T02:50:55.035Z,1.90
2018-07-02T02:53:23.351Z,1.87
2018-07-02T02:55:51.947Z,1.40
2018-07-02T02:58:20.258Z,1.60
2018-07-02T03:00:48.614Z,1.90
2018-07-02T03:03:16.968Z,1.63
2018-07-02T03:05:45.321Z,1.10
2018-07-02T03:08:13.673Z,1.73
2018-07-02T03:10:42.066Z,1.77
2018-07-02T03:13:10.685Z,1.40
2018-07-02T03:15:39.089Z,1.70
2018-07-02T03:18:07.424Z,1.43
2018-07-02T03:20:35.737Z,1.80
2018-07-02T03:23:04.048Z,1.93
2018-07-02T03:25:32.570Z,1.50
2018-07-02T03:28:00.917Z,1.30
2018-07-02T03:30:29.317Z,1.70
2018-07-02T03:32:57.642Z,1.30
2018-07-02T03:35:25.978Z,1.50
2018-07-02T03:37:54.307Z,1.90
2018-07-02T03:40:22.661Z,1.70
2018-07-02T03:42:51.062Z,1.80
2018-07-02T03:45:19.346Z,1.90
2018-07-02T03:47:47.665Z,1.60
2018-07-02T03:50:16.007Z,1.67
2018-07-02T03:52:44.430Z,1.80
2018-07-02T03:55:12.853Z,1.65
2018-07-02T03:57:41.193Z,1.60
2018-07-02T04:00:09.566Z,1.97
2018-07-02T04:02:37.910Z,1.60
2018-07-02T04:05:06.378Z,1.77
2018-07-02T04:07:34.714Z,1.80
2018-07-02T04:10:03.170Z,1.80
2018-07-02T04:12:31.630Z,2.27
2018-07-02T04:14:59.977Z,1.83
2018-07-02T04:17:28.349Z,1.87
2018-07-02T04:19:56.638Z,1.87
2018-07-02T04:22:24.995Z,2.67
2018-07-02T04:24:53.394Z,1.70
2018-07-02T04:27:21.786Z,2.17
2018-07-02T04:29:50.155Z,1.40
2018-07-02T04:32:19.389Z,1.53
2018-07-02T04:34:47.579Z,1.33
2018-07-02T04:37:15.912Z,1.57
2018-07-02T04:39:44.346Z,1.70
2018-07-02T04:42:12.731Z,1.43
2018-07-02T04:44:41.084Z,1.33
2018-07-02T04:47:09.621Z,1.50
2018-07-02T04:49:37.945Z,1.57
2018-07-02T04:52:06.405Z,1.70
2018-07-02T04:54:34.919Z,1.93
2018-07-02T04:57:03.333Z,1.60
2018-07-02T04:59:32.595Z,1.40
2018-07-02T05:02:00.972Z,1.50
2018-07-02T05:04:29.305Z,1.27
2018-07-02T05:06:57.671Z,1.53
2018-07-02T05:09:25.940Z,1.67
2018-07-02T05:11:54.290Z,1.70
2018-07-02T05:14:22.606Z,1.40
2018-07-02T05:16:50.938Z,1.80
2018-07-02T05:19:19.217Z,1.70
2018-07-02T05:21:47.546Z,1.50
2018-07-02T05:24:15.910Z,1.23
2018-07-02T05:26:44.313Z,1.60
2018-07-02T05:29:12.649Z,1.13
2018-07-02T05:31:41.009Z,1.13
2018-07-02T05:34:09.359Z,1.87
2018-07-02T05:36:37.726Z,1.63
2018-07-02T05:39:09.559Z,2.00
2018-07-02T05:41:37.900Z,1.40
2018-07-02T05:44:06.329Z,1.37
2018-07-02T05:46:34.699Z,1.90
2018-07-02T05:49:03.236Z,2.40
2018-07-02T05:51:31.680Z,1.90
2018-07-02T05:54:00.049Z,1.60
2018-07-02T05:56:28.441Z,1.50
2018-07-02T05:58:56.852Z,1.57
2018-07-02T06:01:25.346Z,2.30
2018-07-02T06:03:53.742Z,1.97
2018-07-02T06:06:22.218Z,1.90
2018-07-02T06:08:50.446Z,1.70
2018-07-02T06:11:18.849Z,1.60
2018-07-02T06:13:47.197Z,1.63
2018-07-02T06:16:15.539Z,1.63
2018-07-02T06:18:43.837Z,2.00
2018-07-02T06:21:12.275Z,1.57
2018-07-02T06:23:40.830Z,1.63
2018-07-02T06:26:09.265Z,1.53
2018-07-02T06:28:37.697Z,1.67
2018-07-02T06:31:06.181Z,1.90
2018-07-02T06:33:34.535Z,1.70
2018-07-02T06:36:02.914Z,1.50
2018-07-02T06:38:31.217Z,1.83
2018-07-02T06:40:59.565Z,1.47
2018-07-02T06:43:28.039Z,1.70
2018-07-02T06:45:56.390Z,1.63
2018-07-02T06:48:24.775Z,1.73
2018-07-02T06:50:53.083Z,2.10
2018-07-02T06:53:21.369Z,1.40
2018-07-02T06:55:49.749Z,1.73
2018-07-02T06:58:18.069Z,1.80
2018-07-02T07:00:46.365Z,2.03
2018-07-02T07:03:14.777Z,2.00
2018-07-02T07:05:43.094Z,1.77
2018-07-02T07:08:11.445Z,1.60
2018-07-02T07:10:39.802Z,2.30
2018-07-02T07:13:08.182Z,1.90
2018-07-02T07:15:36.831Z,1.83
2018-07-02T07:18:05.383Z,1.63
2018-07-02T07:20:33.727Z,1.70
2018-07-02T07:23:02.103Z,2.10
2018-07-02T07:25:30.490Z,1.77
2018-07-02T07:27:58.930Z,1.83
2018-07-02T07:30:27.286Z,1.80
2018-07-02T07:32:55.757Z,2.10
2018-07-02T07:35:24.115Z,1.87
2018-07-02T07:37:52.445Z,1.80
2018-07-02T07:40:20.794Z,1.80
2018-07-02T07:42:49.120Z,1.73
2018-07-02T07:45:17.667Z,1.90
2018-07-02T07:47:46.048Z,1.60
2018-07-02T07:50:14.402Z,1.90
2018-07-02T07:52:42.753Z,2.10
2018-07-02T07:55:11.122Z,1.70
2018-07-02T07:57:39.477Z,1.90
2018-07-02T08:00:07.894Z,1.63
2018-07-02T08:02:36.475Z,1.70
2018-07-02T08:05:05.726Z,1.57
2018-07-02T08:07:34.010Z,1.60
2018-07-02T08:10:02.360Z,2.20
2018-07-02T08:12:30.712Z,2.30
2018-07-02T08:14:59.112Z,2.10
2018-07-02T08:17:27.489Z,2.07
2018-07-02T08:19:55.862Z,1.90
2018-07-02T08:22:24.225Z,1.70
2018-07-02T08:24:52.534Z,1.63
2018-07-02T08:27:20.965Z,2.10
2018-07-02T08:29:49.319Z,1.93
2018-07-02T08:32:17.622Z,2.00
2018-07-02T08:34:45.953Z,2.00
2018-07-02T08:37:14.388Z,1.73
2018-07-02T08:39:42.771Z,2.00
2018-07-02T08:42:11.071Z,1.47
2018-07-02T08:44:39.417Z,1.80
2018-07-02T08:47:07.748Z,1.80
2018-07-02T08:49:36.088Z,1.87
2018-07-02T08:52:04.421Z,4.10
2018-07-02T08:54:32.742Z,1.77
2018-07-02T08:57:01.054Z,1.63
2018-07-02T08:59:29.374Z,2.23
2018-07-02T09:01:57.710Z,2.00
2018-07-02T09:04:25.997Z,1.90
2018-07-02T09:06:54.747Z,2.03
2018-07-02T09:09:23.064Z,1.70
2018-07-02T09:11:51.381Z,1.60
2018-07-02T09:14:19.781Z,2.70
2018-07-02T09:16:48.096Z,2.03
2018-07-02T09:19:16.429Z,1.90
2018-07-02T09:21:44.892Z,1.90
2018-07-02T09:24:13.237Z,1.80
2018-07-02T09:26:41.577Z,1.90
2018-07-02T09:29:09.941Z,1.77
2018-07-02T09:31:38.293Z,1.90
2018-07-02T09:34:06.739Z,2.10
2018-07-02T09:36:35.114Z,2.10
2018-07-02T09:39:06.046Z,1.90
2018-07-02T09:41:34.449Z,2.07
2018-07-02T09:44:02.882Z,2.30
2018-07-02T09:46:31.302Z,2.00
2018-07-02T09:48:59.730Z,2.50
2018-07-02T09:51:28.115Z,1.80
2018-07-02T09:53:56.961Z,2.00
2018-07-02T09:56:25.304Z,1.70
2018-07-02T09:58:53.758Z,1.97
2018-07-02T10:01:22.230Z,2.20
2018-07-02T10:03:50.517Z,1.80
2018-07-02T10:06:18.957Z,1.50
2018-07-02T10:08:47.318Z,1.90
2018-07-02T10:11:15.640Z,2.10
2018-07-02T10:13:44.037Z,1.40
2018-07-02T10:16:12.350Z,2.30
2018-07-02T10:18:40.785Z,1.80
2018-07-02T10:21:09.584Z,2.10
2018-07-02T10:23:38.049Z,1.67
2018-07-02T10:26:06.521Z,1.90
2018-07-02T10:28:34.874Z,1.87
2018-07-02T10:31:03.339Z,1.90
2018-07-02T10:33:31.605Z,1.80
2018-07-02T10:36:00.010Z,1.67
2018-07-02T10:38:28.453Z,1.83
2018-07-02T10:40:56.814Z,1.80
2018-07-02T10:43:25.171Z,1.80
2018-07-02T10:45:53.521Z,1.77
2018-07-02T10:48:21.853Z,1.70
2018-07-02T10:50:50.273Z,1.50
2018-07-02T10:53:18.651Z,2.10
2018-07-02T10:55:47.102Z,1.87
2018-07-02T10:58:15.573Z,1.93
2018-07-02T11:00:43.951Z,1.70
2018-07-02T11:03:12.373Z,1.60
2018-07-02T11:05:40.738Z,2.00
2018-07-02T11:08:09.118Z,1.70
2018-07-02T11:10:37.499Z,1.87
2018-07-02T11:13:11.621Z,1.70
2018-07-02T11:15:41.386Z,1.80
2018-07-02T11:18:09.586Z,1.93
2018-07-02T11:20:39.062Z,2.20
2018-07-02T11:23:07.364Z,1.50
2018-07-02T11:25:36.725Z,2.30
2018-07-02T11:28:05.077Z,1.83
2018-07-02T11:30:33.525Z,2.00
2018-07-02T11:33:01.999Z,2.23
2018-07-02T11:35:30.486Z,2.83
2018-07-02T11:37:58.813Z,1.90
2018-07-02T11:40:27.114Z,2.10
2018-07-02T11:42:55.414Z,1.83
2018-07-02T11:45:23.742Z,2.10
2018-07-02T11:47:52.153Z,2.20
2018-07-02T11:50:20.510Z,1.87
2018-07-02T11:52:48.845Z,1.70
2018-07-02T11:55:17.216Z,1.93
2018-07-02T11:57:45.594Z,1.97
2018-07-02T12:00:14.014Z,2.00
2018-07-02T12:02:42.354Z,2.10
2018-07-02T12:05:10.723Z,2.13
2018-07-02T12:07:39.041Z,2.00
2018-07-02T12:10:07.419Z,2.03
2018-07-02T12:12:35.669Z,2.03
2018-07-02T12:15:04.543Z,2.03
2018-07-02T12:17:32.929Z,1.90
2018-07-02T12:20:01.318Z,2.00
2018-07-02T12:22:29.658Z,2.00
2018-07-02T12:24:58.005Z,2.00
2018-07-02T12:27:26.340Z,2.00
2018-07-02T12:29:54.664Z,2.50
2018-07-02T12:32:23.065Z,2.00
2018-07-02T12:34:51.453Z,2.30
2018-07-02T12:37:19.933Z,2.40
2018-07-02T12:39:48.310Z,2.43
2018-07-02T12:42:16.712Z,2.43
2018-07-02T12:44:45.054Z,2.27
2018-07-02T12:47:13.373Z,2.23
2018-07-02T12:49:41.801Z,2.40
2018-07-02T12:52:11.002Z,2.83
2018-07-02T12:54:39.361Z,2.03
2018-07-02T12:57:07.780Z,2.33
2018-07-02T12:59:36.172Z,2.33
2018-07-02T13:02:04.937Z,2.20
2018-07-02T13:04:33.334Z,2.53
2018-07-02T13:07:01.694Z,2.33
2018-07-02T13:09:30.050Z,2.60
2018-07-02T13:11:58.673Z,2.73
2018-07-02T13:14:26.934Z,1.90
2018-07-02T13:16:55.290Z,2.37
2018-07-02T13:19:23.729Z,2.60
2018-07-02T13:21:52.146Z,2.53
2018-07-02T22:29:31.812Z,2.30
2018-07-02T22:32:00.148Z,2.40
2018-07-02T22:34:28.542Z,2.70
2018-07-02T22:36:56.996Z,2.30
2018-07-02T22:39:25.347Z,3.57
2018-07-02T22:41:53.679Z,2.80
2018-07-02T22:44:22.100Z,2.73
2018-07-02T22:46:50.429Z,2.57
2018-07-02T22:49:18.753Z,2.63
2018-07-02T22:51:47.158Z,2.63
2018-07-02T22:54:15.547Z,2.70
2018-07-02T22:56:43.935Z,2.50
2018-07-02T22:59:12.408Z,2.60
2018-07-02T23:01:40.952Z,2.83
2018-07-02T23:04:09.337Z,2.93
2018-07-02T23:06:37.664Z,2.63
2018-07-02T23:09:08.997Z,2.30
2018-07-02T23:11:37.417Z,2.70
2018-07-02T23:14:06.009Z,2.30
2018-07-02T23:16:34.381Z,2.50
2018-07-02T23:19:02.710Z,2.27
2018-07-02T23:21:31.374Z,2.30
2018-07-02T23:23:59.734Z,2.40
2018-07-02T23:26:28.082Z,2.30
2018-07-02T23:28:56.403Z,2.20
2018-07-02T23:31:24.727Z,2.40
2018-07-02T23:33:53.059Z,2.07
2018-07-02T23:36:21.406Z,2.77
2018-07-02T23:38:49.649Z,3.23
2018-07-02T23:41:18.037Z,2.53
2018-07-02T23:43:46.362Z,2.80
2018-07-02T23:46:14.750Z,2.67
2018-07-02T23:48:43.049Z,2.73
2018-07-02T23:51:11.472Z,2.83
2018-07-02T23:53:39.770Z,2.27
2018-07-02T23:56:08.121Z,3.30
2018-07-02T23:58:36.530Z,3.00
